Time;durP1;ratioP1;P1;durP2;ratioP2;P2;SDS_P1;SDS_P2;PMS_P1;PMS_P2;Temp;Humidity;BMP_temperature;BMP_pressure;BME280_temperature;BME280_humidity;BME280_pressure;Samples;Min_cycle;Max_cycle;Signal;HPM_P1;HPM_P2
2022/02/21 00:01:52;;;;;;;22.25;3.17;;;;;;;;;;5047600;28;20512;-63
2022/02/21 00:04:19;;;;;;;35.83;5.05;;;;;;;;;;5039417;28;20049;-64
2022/02/21 00:06:45;;;;;;;24.10;4.22;;;;;;;;;;5046006;28;20118;-64
2022/02/21 00:09:11;;;;;;;30.38;5.50;;;;;;;;;;5044738;28;20052;-63
2022/02/21 00:11:38;;;;;;;24.63;5.30;;;;;;;;;;5040388;28;20396;-64
2022/02/21 00:14:04;;;;;;;26.65;4.03;;;;;;;;;;5050133;28;20455;-64
2022/02/21 00:16:30;;;;;;;40.60;5.65;;;;;;;;;;5045183;28;20041;-64
2022/02/21 00:18:56;;;;;;;29.75;4.65;;;;;;;;;;5046932;28;20049;-64
2022/02/21 00:21:22;;;;;;;27.20;4.97;;;;;;;;;;5078885;28;20471;-64
2022/02/21 00:23:49;;;;;;;26.73;4.93;;;;;;;;;;5049550;28;20045;-64
2022/02/21 00:26:16;;;;;;;31.60;5.80;;;;;;;;;;5048629;28;20050;-64
2022/02/21 00:28:43;;;;;;;27.05;4.47;;;;;;;;;;5050158;28;20048;-64
2022/02/21 00:31:09;;;;;;;30.88;5.03;;;;;;;;;;5049976;28;20045;-64
2022/02/21 00:33:35;;;;;;;22.70;4.20;;;;;;;;;;5048547;28;20123;-64
2022/02/21 00:36:03;;;;;;;36.45;4.53;;;;;;;;;;5047029;28;20044;-64
2022/02/21 00:38:29;;;;;;;30.98;5.07;;;;;;;;;;5045625;28;20049;-64
2022/02/21 00:40:55;;;;;;;38.38;5.03;;;;;;;;;;5049200;28;20041;-64
2022/02/21 00:43:22;;;;;;;41.72;6.15;;;;;;;;;;5046945;28;20116;-64
2022/02/21 00:45:48;;;;;;;29.77;4.88;;;;;;;;;;5047252;28;20049;-64
2022/02/21 00:48:14;;;;;;;36.80;5.78;;;;;;;;;;5048110;28;20033;-64
2022/02/21 00:50:40;;;;;;;37.28;6.15;;;;;;;;;;5048592;28;20195;-64
2022/02/21 00:53:06;;;;;;;25.00;4.53;;;;;;;;;;5036050;28;20136;-64
2022/02/21 00:55:34;;;;;;;25.52;4.45;;;;;;;;;;5045876;28;20126;-64
2022/02/21 00:58:01;;;;;;;35.50;5.25;;;;;;;;;;5042525;28;20061;-64
2022/02/21 01:00:27;;;;;;;30.33;4.40;;;;;;;;;;5047171;28;20449;-64
2022/02/21 01:02:53;;;;;;;30.13;4.72;;;;;;;;;;5049070;28;20052;-64
2022/02/21 01:05:19;;;;;;;29.10;5.05;;;;;;;;;;5046204;28;20135;-64
2022/02/21 01:07:46;;;;;;;39.22;5.47;;;;;;;;;;5045479;28;20044;-64
2022/02/21 01:10:12;;;;;;;24.67;4.72;;;;;;;;;;5050733;28;20048;-64
2022/02/21 01:12:38;;;;;;;41.35;6.53;;;;;;;;;;5047982;28;20774;-64
2022/02/21 01:15:05;;;;;;;24.65;4.32;;;;;;;;;;5050382;28;20223;-64
2022/02/21 01:17:32;;;;;;;24.30;4.13;;;;;;;;;;5050211;28;20102;-64
2022/02/21 01:19:59;;;;;;;23.50;4.35;;;;;;;;;;5048199;28;20392;-64
2022/02/21 01:22:26;;;;;;;32.63;6.35;;;;;;;;;;5045911;28;20072;-64
2022/02/21 01:24:52;;;;;;;25.70;4.20;;;;;;;;;;5044262;28;20626;-64
2022/02/21 01:27:18;;;;;;;26.25;5.03;;;;;;;;;;5043561;28;20503;-64
2022/02/21 01:29:44;;;;;;;27.58;4.82;;;;;;;;;;5051950;28;20460;-64
2022/02/21 01:32:10;;;;;;;23.30;4.45;;;;;;;;;;5048746;28;20396;-64
2022/02/21 01:34:36;;;;;;;30.77;5.05;;;;;;;;;;5046320;28;20477;-64
2022/02/21 01:37:03;;;;;;;30.77;6.18;;;;;;;;;;5048552;28;20037;-65
2022/02/21 01:39:29;;;;;;;21.77;4.40;;;;;;;;;;5050176;28;20422;-63
2022/02/21 01:41:55;;;;;;;31.70;5.25;;;;;;;;;;5048440;28;20512;-63
2022/02/21 01:44:34;;;;;;;42.83;7.13;;;;;;;;;;5049935;28;20454;-64
2022/02/21 01:47:00;;;;;;;35.33;6.57;;;;;;;;;;5049027;28;20079;-63
2022/02/21 01:49:27;;;;;;;33.45;5.85;;;;;;;;;;5052144;28;20056;-64
2022/02/21 01:51:53;;;;;;;32.95;4.72;;;;;;;;;;5051828;28;20059;-64
2022/02/21 01:54:19;;;;;;;40.03;5.88;;;;;;;;;;5046264;28;20136;-64
2022/02/21 01:56:45;;;;;;;28.00;5.03;;;;;;;;;;5046852;28;20053;-64
2022/02/21 01:59:11;;;;;;;26.92;4.32;;;;;;;;;;5050517;28;20067;-64
2022/02/21 02:01:38;;;;;;;33.85;4.50;;;;;;;;;;5048479;28;20048;-63
2022/02/21 02:04:05;;;;;;;28.70;4.70;;;;;;;;;;5050892;28;20036;-64
2022/02/21 02:06:31;;;;;;;26.92;4.50;;;;;;;;;;5050606;28;20056;-63
2022/02/21 02:08:58;;;;;;;33.95;5.85;;;;;;;;;;5047712;28;20053;-63
2022/02/21 02:11:25;;;;;;;23.60;4.03;;;;;;;;;;5048632;28;20045;-64
2022/02/21 02:13:52;;;;;;;25.88;3.97;;;;;;;;;;5048369;28;20064;-64
2022/02/21 02:16:18;;;;;;;26.73;5.05;;;;;;;;;;5050327;28;20432;-63
2022/02/21 02:18:46;;;;;;;42.97;5.32;;;;;;;;;;5084645;28;20045;-64
2022/02/21 02:21:17;;;;;;;26.17;4.97;;;;;;;;;;5048516;28;20056;-64
2022/02/21 02:23:43;;;;;;;26.13;4.50;;;;;;;;;;5048646;28;20489;-64
2022/02/21 02:26:09;;;;;;;28.85;5.53;;;;;;;;;;5049058;28;20163;-64
2022/02/21 02:28:36;;;;;;;23.10;6.80;;;;;;;;;;5049298;28;20473;-64
2022/02/21 02:31:02;;;;;;;26.08;6.05;;;;;;;;;;5054051;28;20113;-64
2022/02/21 02:33:28;;;;;;;33.88;5.38;;;;;;;;;;5047328;28;20053;-64
2022/02/21 02:35:54;;;;;;;26.42;4.18;;;;;;;;;;5047117;28;20047;-64
2022/02/21 02:38:20;;;;;;;26.45;4.80;;;;;;;;;;5051398;28;20085;-64
2022/02/21 02:40:47;;;;;;;24.38;5.28;;;;;;;;;;5050644;28;20481;-64
2022/02/21 02:43:14;;;;;;;31.73;4.70;;;;;;;;;;5050555;28;20124;-64
2022/02/21 02:45:44;;;;;;;29.45;4.47;;;;;;;;;;5049738;28;20044;-64
2022/02/21 02:48:11;;;;;;;27.13;4.82;;;;;;;;;;5047387;28;20040;-64
2022/02/21 02:50:38;;;;;;;32.40;5.00;;;;;;;;;;5050135;28;20055;-64
2022/02/21 02:53:04;;;;;;;28.13;5.30;;;;;;;;;;5041111;28;20087;-63
2022/02/21 02:55:31;;;;;;;29.52;6.43;;;;;;;;;;5047571;28;20141;-64
2022/02/21 02:57:57;;;;;;;29.52;5.18;;;;;;;;;;5049612;28;20366;-64
2022/02/21 03:00:23;;;;;;;35.67;5.10;;;;;;;;;;5048474;28;20525;-63
2022/02/21 03:02:49;;;;;;;21.80;4.07;;;;;;;;;;5047975;28;20112;-64
2022/02/21 03:05:16;;;;;;;21.77;4.60;;;;;;;;;;5032369;28;20421;-63
2022/02/21 03:07:42;;;;;;;34.67;5.38;;;;;;;;;;5048269;28;20029;-64
2022/02/21 03:10:08;;;;;;;25.02;4.65;;;;;;;;;;5048764;28;20497;-64
2022/02/21 03:12:34;;;;;;;28.90;5.75;;;;;;;;;;5046775;28;20087;-64
2022/02/21 03:15:00;;;;;;;26.38;3.78;;;;;;;;;;5048698;28;20377;-63
2022/02/21 03:17:26;;;;;;;20.25;5.13;;;;;;;;;;5049184;28;20499;-64
2022/02/21 03:19:53;;;;;;;32.03;4.32;;;;;;;;;;5047941;28;20053;-64
2022/02/21 03:22:19;;;;;;;24.05;5.30;;;;;;;;;;5050463;28;20090;-64
2022/02/21 03:24:45;;;;;;;25.85;5.82;;;;;;;;;;5062712;28;20069;-64
2022/02/21 03:27:11;;;;;;;28.90;4.15;;;;;;;;;;5045346;28;20087;-64
2022/02/21 03:29:37;;;;;;;24.80;3.63;;;;;;;;;;5048166;28;20045;-64
2022/02/21 03:32:04;;;;;;;27.08;3.97;;;;;;;;;;5047793;28;20041;-64
2022/02/21 03:34:30;;;;;;;20.08;4.70;;;;;;;;;;5046566;28;20146;-64
2022/02/21 03:36:56;;;;;;;22.75;4.03;;;;;;;;;;5051322;28;20033;-63
2022/02/21 03:39:22;;;;;;;26.60;5.15;;;;;;;;;;5054830;28;20041;-64
2022/02/21 03:41:48;;;;;;;26.10;4.68;;;;;;;;;;5058896;28;20537;-63
2022/02/21 03:44:14;;;;;;;28.38;5.28;;;;;;;;;;5048210;28;20060;-64
2022/02/21 03:46:42;;;;;;;30.33;5.30;;;;;;;;;;5047395;28;20127;-64
2022/02/21 03:49:09;;;;;;;26.42;4.32;;;;;;;;;;5049206;28;20142;-64
2022/02/21 03:51:35;;;;;;;31.92;5.43;;;;;;;;;;5047811;28;20040;-64
2022/02/21 03:54:01;;;;;;;27.67;5.25;;;;;;;;;;5047618;28;20055;-64
2022/02/21 03:56:27;;;;;;;28.70;5.18;;;;;;;;;;5046711;28;20061;-64
2022/02/21 03:58:53;;;;;;;21.88;3.47;;;;;;;;;;5047752;28;20056;-64
2022/02/21 04:01:20;;;;;;;28.52;5.70;;;;;;;;;;5047424;28;20053;-64
2022/02/21 04:03:46;;;;;;;30.45;4.85;;;;;;;;;;5048710;28;20041;-64
2022/02/21 04:06:12;;;;;;;21.20;6.25;;;;;;;;;;5045100;28;20342;-64
2022/02/21 04:08:38;;;;;;;28.02;4.57;;;;;;;;;;5043536;28;20106;-63
2022/02/21 04:11:04;;;;;;;21.15;3.65;;;;;;;;;;5045300;28;20052;-64
2022/02/21 04:13:31;;;;;;;19.17;4.70;;;;;;;;;;5046638;28;20041;-63
2022/02/21 04:15:58;;;;;;;21.25;3.63;;;;;;;;;;5043739;28;20046;-63
2022/02/21 04:18:24;;;;;;;28.50;5.25;;;;;;;;;;5047804;28;20049;-63
2022/02/21 04:20:51;;;;;;;26.83;5.97;;;;;;;;;;5047631;28;20128;-63
2022/02/21 04:23:17;;;;;;;40.42;4.57;;;;;;;;;;5074935;28;20129;-63
2022/02/21 04:25:44;;;;;;;18.92;4.72;;;;;;;;;;5043748;28;20100;-63
2022/02/21 04:28:11;;;;;;;24.85;4.55;;;;;;;;;;5046267;28;20079;-64
2022/02/21 04:30:38;;;;;;;34.95;5.00;;;;;;;;;;5075952;28;20077;-63
2022/02/21 04:33:04;;;;;;;28.05;4.80;;;;;;;;;;5047446;28;20456;-64
2022/02/21 04:35:30;;;;;;;33.28;4.57;;;;;;;;;;5049679;28;20071;-63
2022/02/21 04:37:56;;;;;;;19.02;4.38;;;;;;;;;;5046698;28;20514;-63
2022/02/21 04:40:24;;;;;;;18.70;5.03;;;;;;;;;;5045611;28;20045;-64
2022/02/21 04:42:52;;;;;;;23.52;3.75;;;;;;;;;;5048187;28;20572;-64
2022/02/21 04:45:19;;;;;;;22.88;3.20;;;;;;;;;;5053723;28;20132;-64
2022/02/21 04:47:45;;;;;;;18.70;4.25;;;;;;;;;;5047039;28;20044;-63
2022/02/21 04:50:11;;;;;;;23.77;3.90;;;;;;;;;;5053632;28;20049;-63
2022/02/21 04:52:38;;;;;;;23.30;3.70;;;;;;;;;;5047899;28;20064;-64
2022/02/21 04:55:05;;;;;;;28.75;4.07;;;;;;;;;;5051903;28;20128;-64
2022/02/21 04:57:31;;;;;;;38.10;6.35;;;;;;;;;;5050029;28;20045;-64
2022/02/21 04:59:57;;;;;;;24.00;5.00;;;;;;;;;;5049149;28;20045;-64
2022/02/21 05:02:24;;;;;;;25.15;4.40;;;;;;;;;;5051149;28;20073;-64
2022/02/21 05:04:50;;;;;;;30.08;4.05;;;;;;;;;;5049234;28;20048;-63
2022/02/21 05:07:16;;;;;;;25.77;4.50;;;;;;;;;;5051830;28;20101;-64
2022/02/21 05:09:42;;;;;;;25.38;3.53;;;;;;;;;;5050255;28;20090;-64
2022/02/21 05:12:09;;;;;;;23.98;5.40;;;;;;;;;;5081118;28;20045;-63
2022/02/21 05:14:35;;;;;;;22.42;4.15;;;;;;;;;;5053239;28;20412;-64
2022/02/21 05:17:01;;;;;;;29.05;5.15;;;;;;;;;;5052156;28;20504;-64
2022/02/21 05:19:28;;;;;;;28.40;5.00;;;;;;;;;;5047820;28;20049;-63
2022/02/21 05:21:55;;;;;;;25.65;4.28;;;;;;;;;;5052889;28;20116;-64
2022/02/21 05:24:21;;;;;;;30.90;4.63;;;;;;;;;;5049121;28;20041;-63
2022/02/21 05:26:47;;;;;;;33.85;4.93;;;;;;;;;;5052598;28;20071;-63
2022/02/21 05:29:13;;;;;;;26.85;4.53;;;;;;;;;;5050342;28;20357;-64
2022/02/21 05:31:40;;;;;;;20.77;4.22;;;;;;;;;;5051633;28;20395;-63
2022/02/21 05:34:06;;;;;;;29.58;3.85;;;;;;;;;;5052714;28;20558;-63
2022/02/21 05:36:32;;;;;;;35.30;4.70;;;;;;;;;;5053218;28;20060;-63
2022/02/21 05:38:58;;;;;;;32.10;4.32;;;;;;;;;;5046655;28;20148;-63
2022/02/21 05:41:24;;;;;;;23.27;3.88;;;;;;;;;;5047184;28;20404;-63
2022/02/21 05:43:50;;;;;;;29.45;6.35;;;;;;;;;;5046321;28;20380;-64
2022/02/21 05:46:17;;;;;;;30.73;5.55;;;;;;;;;;5043095;28;20041;-64
2022/02/21 05:48:43;;;;;;;33.58;4.90;;;;;;;;;;5051165;28;20059;-64
2022/02/21 05:51:09;;;;;;;26.85;5.07;;;;;;;;;;5048857;28;20045;-63
2022/02/21 05:53:36;;;;;;;35.53;5.95;;;;;;;;;;5045795;28;20053;-63
2022/02/21 05:56:02;;;;;;;29.65;6.10;;;;;;;;;;5050563;28;20044;-63
2022/02/21 05:58:30;;;;;;;37.28;5.65;;;;;;;;;;5052974;28;20464;-63
2022/02/21 06:00:56;;;;;;;25.13;5.32;;;;;;;;;;5046576;28;20493;-64
2022/02/21 06:03:22;;;;;;;25.98;4.25;;;;;;;;;;5076389;28;20342;-64
2022/02/21 06:05:48;;;;;;;29.13;4.80;;;;;;;;;;5049329;28;20119;-63
2022/02/21 06:08:14;;;;;;;25.75;3.92;;;;;;;;;;5044171;28;20040;-63
2022/02/21 06:10:41;;;;;;;29.83;4.50;;;;;;;;;;5050919;28;20040;-64
2022/02/21 06:13:07;;;;;;;29.17;5.88;;;;;;;;;;5048092;28;20041;-63
2022/02/21 06:15:33;;;;;;;29.73;4.60;;;;;;;;;;5050506;28;20115;-64
2022/02/21 06:17:59;;;;;;;25.10;5.47;;;;;;;;;;5047547;28;20075;-64
2022/02/21 06:20:26;;;;;;;35.45;4.93;;;;;;;;;;5055171;28;20131;-64
2022/02/21 06:22:52;;;;;;;28.63;4.35;;;;;;;;;;5048624;28;20458;-63
2022/02/21 06:25:19;;;;;;;29.20;5.38;;;;;;;;;;5050605;28;20472;-64
2022/02/21 06:27:45;;;;;;;35.72;7.07;;;;;;;;;;5047249;28;20041;-63
2022/02/21 06:30:11;;;;;;;23.98;5.68;;;;;;;;;;5045410;28;20048;-64
2022/02/21 06:32:37;;;;;;;30.15;6.18;;;;;;;;;;5047892;28;20048;-63
2022/02/21 06:35:04;;;;;;;25.90;4.65;;;;;;;;;;5050486;28;20049;-64
2022/02/21 06:37:30;;;;;;;31.35;4.85;;;;;;;;;;5048611;28;20036;-64
2022/02/21 06:39:56;;;;;;;31.95;5.05;;;;;;;;;;5047511;28;20480;-63
2022/02/21 06:42:22;;;;;;;29.55;4.35;;;;;;;;;;5048970;28;20033;-63
2022/02/21 06:44:48;;;;;;;26.52;6.22;;;;;;;;;;5049065;28;20036;-64
2022/02/21 06:47:15;;;;;;;27.08;5.63;;;;;;;;;;5040342;28;20044;-63
2022/02/21 06:49:41;;;;;;;36.03;5.25;;;;;;;;;;5048608;28;20645;-63
2022/02/21 06:52:08;;;;;;;34.15;4.65;;;;;;;;;;5041259;28;20183;-63
2022/02/21 06:54:34;;;;;;;32.47;6.35;;;;;;;;;;5046124;28;20057;-63
2022/02/21 06:57:00;;;;;;;32.22;5.50;;;;;;;;;;5045209;28;20046;-64
2022/02/21 06:59:27;;;;;;;30.42;5.55;;;;;;;;;;5040682;28;20057;-64
2022/02/21 07:01:53;;;;;;;36.15;6.38;;;;;;;;;;5043261;28;20048;-64
2022/02/21 07:04:20;;;;;;;23.77;4.47;;;;;;;;;;5045498;28;20140;-64
2022/02/21 07:06:46;;;;;;;29.13;5.68;;;;;;;;;;5037201;28;20957;-64
2022/02/21 07:09:14;;;;;;;21.65;3.97;;;;;;;;;;5051123;28;20041;-64
2022/02/21 07:11:40;;;;;;;32.65;4.78;;;;;;;;;;5050914;28;20123;-63
2022/02/21 07:14:06;;;;;;;29.20;5.32;;;;;;;;;;5047056;28;20143;-64
2022/02/21 07:16:33;;;;;;;39.88;6.53;;;;;;;;;;5044982;28;20098;-65
2022/02/21 07:18:59;;;;;;;36.00;6.38;;;;;;;;;;5048019;28;20052;-64
2022/02/21 07:21:25;;;;;;;35.20;6.47;;;;;;;;;;5052435;28;20076;-64
2022/02/21 07:23:52;;;;;;;35.75;6.40;;;;;;;;;;5055629;28;20056;-64
2022/02/21 07:26:19;;;;;;;31.83;7.07;;;;;;;;;;5047986;28;20124;-64
2022/02/21 07:28:45;;;;;;;33.50;6.53;;;;;;;;;;5052388;28;20052;-64
2022/02/21 07:31:11;;;;;;;25.20;5.35;;;;;;;;;;5055791;28;20515;-64
2022/02/21 07:33:37;;;;;;;32.35;5.90;;;;;;;;;;5044887;28;20142;-64
2022/02/21 07:36:04;;;;;;;28.17;4.30;;;;;;;;;;5054714;28;20098;-63
2022/02/21 07:38:30;;;;;;;26.80;4.53;;;;;;;;;;5053612;28;20111;-64
2022/02/21 07:40:56;;;;;;;25.60;4.22;;;;;;;;;;5052306;28;20176;-64
2022/02/21 07:43:22;;;;;;;19.13;3.85;;;;;;;;;;5055639;28;20084;-64
2022/02/21 07:45:48;;;;;;;27.08;5.60;;;;;;;;;;5052717;28;20055;-64
2022/02/21 07:48:14;;;;;;;38.75;5.97;;;;;;;;;;5051474;28;20046;-64
2022/02/21 07:50:40;;;;;;;41.13;5.45;;;;;;;;;;5050015;28;20484;-64
2022/02/21 07:53:08;;;;;;;35.05;5.88;;;;;;;;;;5055274;28;20526;-64
2022/02/21 07:55:34;;;;;;;30.05;4.70;;;;;;;;;;5054225;28;20516;-64
2022/02/21 07:58:00;;;;;;;28.48;4.78;;;;;;;;;;5053021;28;20041;-64
2022/02/21 08:00:27;;;;;;;27.50;4.45;;;;;;;;;;5052195;28;20044;-65
2022/02/21 08:02:53;;;;;;;30.02;4.88;;;;;;;;;;5050374;28;20045;-64
2022/02/21 08:05:19;;;;;;;27.00;4.53;;;;;;;;;;5039802;28;20068;-64
2022/02/21 08:07:46;;;;;;;25.10;5.38;;;;;;;;;;5046627;28;20040;-62
2022/02/21 08:10:12;;;;;;;29.42;4.75;;;;;;;;;;5048209;28;20051;-62
2022/02/21 08:12:38;;;;;;;19.63;3.67;;;;;;;;;;5045928;28;20047;-63
2022/02/21 08:15:06;;;;;;;26.17;5.40;;;;;;;;;;5049378;28;20112;-62
2022/02/21 08:17:49;;;;;;;29.02;5.90;;;;;;;;;;5042997;28;20396;-63
2022/02/21 08:20:16;;;;;;;21.63;2.80;;;;;;;;;;5043955;28;20614;-63
2022/02/21 08:22:43;;;;;;;16.90;2.63;;;;;;;;;;5049962;28;20172;-63
2022/02/21 08:25:10;;;;;;;17.90;2.70;;;;;;;;;;5037901;28;20493;-63
2022/02/21 08:27:38;;;;;;;15.02;3.17;;;;;;;;;;5044194;28;20049;-64
2022/02/21 08:30:05;;;;;;;12.30;1.98;;;;;;;;;;5041535;28;20050;-65
2022/02/21 08:32:31;;;;;;;11.23;1.52;;;;;;;;;;5036610;28;20501;-64
2022/02/21 08:34:57;;;;;;;8.98;1.50;;;;;;;;;;5031296;28;20048;-64
2022/02/21 08:37:23;;;;;;;8.68;1.40;;;;;;;;;;5041043;28;20461;-64
2022/02/21 08:39:49;;;;;;;11.68;1.23;;;;;;;;;;5032614;28;20041;-64
2022/02/21 08:42:15;;;;;;;17.05;2.50;;;;;;;;;;5034196;28;20037;-64
2022/02/21 08:44:41;;;;;;;13.07;3.30;;;;;;;;;;5070666;28;20378;-64
2022/02/21 08:47:08;;;;;;;19.83;2.95;;;;;;;;;;5040265;28;20044;-64
2022/02/21 08:49:34;;;;;;;17.95;1.98;;;;;;;;;;5033899;28;20049;-64
2022/02/21 08:52:00;;;;;;;13.68;1.88;;;;;;;;;;5040725;28;20048;-64
2022/02/21 08:54:26;;;;;;;16.27;2.17;;;;;;;;;;5038400;28;20128;-66
2022/02/21 08:56:52;;;;;;;15.27;2.28;;;;;;;;;;5041802;28;20177;-64
2022/02/21 08:59:19;;;;;;;10.88;1.85;;;;;;;;;;5033368;28;20688;-63
2022/02/21 09:01:46;;;;;;;8.98;1.60;;;;;;;;;;5036821;28;20488;-64
2022/02/21 09:04:12;;;;;;;10.50;1.83;;;;;;;;;;5033746;28;20404;-64
2022/02/21 09:06:39;;;;;;;12.00;1.52;;;;;;;;;;5062574;28;20038;-64
2022/02/21 09:09:05;;;;;;;17.80;2.05;;;;;;;;;;5033046;28;20448;-64
2022/02/21 09:11:31;;;;;;;12.82;2.08;;;;;;;;;;5035694;28;20041;-64
2022/02/21 09:13:58;;;;;;;18.75;2.33;;;;;;;;;;5065197;28;20393;-64
2022/02/21 09:16:24;;;;;;;25.42;3.08;;;;;;;;;;5034427;28;20038;-64
2022/02/21 09:18:50;;;;;;;23.48;4.30;;;;;;;;;;5033764;28;20053;-64
2022/02/21 09:21:16;;;;;;;24.45;3.78;;;;;;;;;;5043468;28;20413;-64
2022/02/21 09:23:43;;;;;;;28.27;3.30;;;;;;;;;;5032219;28;20128;-64
2022/02/21 09:26:09;;;;;;;34.55;4.55;;;;;;;;;;5030765;28;20426;-64
2022/02/21 09:28:35;;;;;;;35.15;5.03;;;;;;;;;;5042215;28;20041;-64
2022/02/21 09:31:01;;;;;;;36.72;4.43;;;;;;;;;;5038415;28;20037;-64
2022/02/21 09:33:27;;;;;;;34.75;5.95;;;;;;;;;;5040771;28;20122;-63
2022/02/21 09:35:54;;;;;;;33.65;5.03;;;;;;;;;;5033787;28;20049;-64
2022/02/21 09:38:20;;;;;;;39.45;6.57;;;;;;;;;;5041140;28;20089;-64
2022/02/21 09:40:50;;;;;;;52.00;7.15;;;;;;;;;;5044795;28;20454;-64
2022/02/21 09:43:18;;;;;;;37.50;6.60;;;;;;;;;;5081200;28;20232;-65
2022/02/21 09:45:45;;;;;;;61.05;7.05;;;;;;;;;;5035470;28;20476;-64
2022/02/21 09:48:13;;;;;;;64.10;9.48;;;;;;;;;;5038052;28;20041;-64
2022/02/21 09:50:40;;;;;;;39.78;5.40;;;;;;;;;;5043534;28;20393;-63
2022/02/21 09:53:06;;;;;;;53.53;7.50;;;;;;;;;;5038218;28;20073;-64
2022/02/21 09:55:32;;;;;;;62.83;9.88;;;;;;;;;;5035470;28;20049;-65
2022/02/21 09:57:59;;;;;;;46.50;7.80;;;;;;;;;;5035517;28;20508;-65
2022/02/21 10:00:26;;;;;;;51.50;10.85;;;;;;;;;;5036293;28;20119;-70
2022/02/21 10:02:52;;;;;;;63.75;8.80;;;;;;;;;;5038454;28;20090;-64
2022/02/21 10:05:21;;;;;;;68.35;10.00;;;;;;;;;;5047429;28;20052;-64
2022/02/21 10:07:48;;;;;;;60.13;10.77;;;;;;;;;;5044235;28;20053;-64
2022/02/21 10:10:17;;;;;;;56.20;8.75;;;;;;;;;;5043774;28;20534;-64
2022/02/21 10:12:50;;;;;;;60.05;9.00;;;;;;;;;;5043362;28;20362;-63
2022/02/21 10:15:20;;;;;;;50.57;9.00;;;;;;;;;;5042563;28;20480;-63
2022/02/21 10:17:47;;;;;;;50.50;7.38;;;;;;;;;;5044436;28;20044;-64
2022/02/21 10:20:14;;;;;;;53.13;7.68;;;;;;;;;;5040401;28;20049;-64
2022/02/21 10:22:42;;;;;;;52.05;7.30;;;;;;;;;;5034597;28;20124;-64
2022/02/21 10:25:16;;;;;;;66.47;7.57;;;;;;;;;;5039383;28;20041;-64
2022/02/21 10:27:42;;;;;;;56.83;9.05;;;;;;;;;;5043451;28;20037;-64
2022/02/21 10:30:10;;;;;;;47.65;7.88;;;;;;;;;;5044532;28;20057;-64
2022/02/21 10:32:38;;;;;;;47.78;5.78;;;;;;;;;;5045137;28;20061;-67
2022/02/21 10:35:15;;;;;;;56.75;6.80;;;;;;;;;;5031853;28;20087;-64
2022/02/21 10:37:48;;;;;;;44.20;6.57;;;;;;;;;;5031998;28;20060;-65
2022/02/21 10:40:16;;;;;;;48.75;6.75;;;;;;;;;;5032421;28;20044;-66
2022/02/21 10:42:44;;;;;;;44.15;6.65;;;;;;;;;;5067657;28;20131;-65
2022/02/21 10:45:13;;;;;;;61.35;10.68;;;;;;;;;;5035571;28;20052;-65
2022/02/21 10:47:39;;;;;;;58.47;7.85;;;;;;;;;;5068409;28;20045;-66
2022/02/21 10:50:06;;;;;;;51.10;7.60;;;;;;;;;;5062930;28;20053;-66
2022/02/21 10:52:35;;;;;;;49.83;6.70;;;;;;;;;;5075165;28;20044;-66
2022/02/21 10:55:02;;;;;;;43.40;6.80;;;;;;;;;;5035677;28;20513;-66
2022/02/21 10:57:29;;;;;;;43.83;7.68;;;;;;;;;;5033196;28;20037;-66
2022/02/21 10:59:56;;;;;;;49.20;7.65;;;;;;;;;;5037918;28;20605;-67
2022/02/21 11:02:22;;;;;;;60.25;8.93;;;;;;;;;;5037153;28;20501;-66
2022/02/21 11:04:49;;;;;;;55.80;9.20;;;;;;;;;;5030383;28;20474;-66
2022/02/21 11:07:15;;;;;;;66.57;9.40;;;;;;;;;;5042766;28;20040;-64
2022/02/21 11:09:42;;;;;;;48.63;7.57;;;;;;;;;;5033789;28;20091;-64
2022/02/21 11:12:09;;;;;;;71.38;9.60;;;;;;;;;;5035011;28;20041;-64
2022/02/21 11:14:35;;;;;;;65.40;9.75;;;;;;;;;;5034971;28;20056;-64
2022/02/21 11:17:03;;;;;;;61.10;8.68;;;;;;;;;;5033857;28;20075;-63
2022/02/21 11:19:29;;;;;;;65.22;9.93;;;;;;;;;;5067416;28;20512;-64
2022/02/21 11:21:56;;;;;;;61.75;8.45;;;;;;;;;;5032987;28;20128;-63
2022/02/21 11:24:30;;;;;;;73.55;11.50;;;;;;;;;;5033278;28;20624;-64
2022/02/21 11:26:56;;;;;;;;;;;;;;;;;;5037144;28;20091;-63
2022/02/21 11:29:30;;;;;;;76.72;12.07;;;;;;;;;;5046075;28;20381;-64
2022/02/21 11:31:57;;;;;;;66.90;10.45;;;;;;;;;;5073502;28;20055;-63
2022/02/21 11:34:23;;;;;;;66.60;9.18;;;;;;;;;;5044414;28;20044;-63
2022/02/21 11:36:57;;;;;;;78.70;10.32;;;;;;;;;;5036922;28;20045;-64
2022/02/21 11:39:28;;;;;;;75.00;12.90;;;;;;;;;;5039668;28;20098;-64
2022/02/21 11:42:05;;;;;;;74.72;9.95;;;;;;;;;;5041585;28;20092;-64
2022/02/21 11:44:46;;;;;;;73.30;10.70;;;;;;;;;;5037443;28;20489;-64
2022/02/21 11:47:31;;;;;;;52.85;8.13;;;;;;;;;;5070161;28;20500;-64
2022/02/21 11:49:57;;;;;;;103.70;13.30;;;;;;;;;;5055827;28;20508;-64
2022/02/21 11:52:31;;;;;;;67.25;10.05;;;;;;;;;;5036978;28;20038;-64
2022/02/21 11:54:57;;;;;;;55.78;8.95;;;;;;;;;;5039034;28;20060;-64
2022/02/21 11:57:28;;;;;;;62.00;10.18;;;;;;;;;;5037183;28;20068;-64
2022/02/21 11:59:54;;;;;;;66.78;8.00;;;;;;;;;;5039444;28;20106;-64
2022/02/21 12:02:21;;;;;;;56.90;9.77;;;;;;;;;;5057099;28;20045;-63
2022/02/21 12:04:48;;;;;;;58.28;6.13;;;;;;;;;;5036632;28;20068;-63
2022/02/21 12:07:22;;;;;;;66.82;8.07;;;;;;;;;;5074234;28;20073;-64
2022/02/21 12:09:48;;;;;;;;;;;;;;;;;;5069823;28;20068;-64
2022/02/21 12:12:22;;;;;;;54.50;7.38;;;;;;;;;;5038633;28;19959;-65
2022/02/21 12:15:07;;;;;;;42.00;7.13;;;;;;;;;;5038997;28;20086;-64
2022/02/21 12:17:34;;;;;;;41.83;6.80;;;;;;;;;;5037959;28;20551;-64
2022/02/21 12:20:20;;;;;;;37.15;5.50;;;;;;;;;;5038881;28;20530;-64
2022/02/21 12:23:05;;;;;;;51.03;7.00;;;;;;;;;;5031541;28;20044;-64
2022/02/21 12:25:40;;;;;;;50.38;10.30;;;;;;;;;;5036438;28;20421;-64
2022/02/21 12:28:14;;;;;;;44.30;5.78;;;;;;;;;;5044030;28;20063;-69
2022/02/21 12:30:41;;;;;;;43.95;6.32;;;;;;;;;;5040252;28;20397;-64
2022/02/21 12:33:08;;;;;;;43.35;5.65;;;;;;;;;;5035806;28;20041;-65
2022/02/21 12:35:44;;;;;;;43.25;6.68;;;;;;;;;;5032925;28;20041;-64
2022/02/21 12:38:11;;;;;;;44.58;6.72;;;;;;;;;;5037332;28;20347;-64
2022/02/21 12:40:37;;;;;;;50.13;7.13;;;;;;;;;;5036648;28;20093;-63
2022/02/21 12:43:03;;;;;;;56.05;9.82;;;;;;;;;;5070346;28;20068;-64
2022/02/21 12:45:41;;;;;;;58.03;7.50;;;;;;;;;;5034398;28;20046;-64
2022/02/21 12:48:07;;;;;;;56.67;9.20;;;;;;;;;;5032786;28;20052;-64
2022/02/21 12:50:33;;;;;;;50.63;6.15;;;;;;;;;;5033900;28;20053;-64
2022/02/21 12:53:02;;;;;;;59.70;7.03;;;;;;;;;;5029426;28;20104;-64
2022/02/21 12:55:28;;;;;;;56.60;6.90;;;;;;;;;;5039971;28;20049;-64
2022/02/21 12:57:54;;;;;;;55.05;7.55;;;;;;;;;;5031813;28;20052;-64
2022/02/21 13:00:21;;;;;;;40.05;6.68;;;;;;;;;;5032525;28;20128;-63
2022/02/21 13:02:47;;;;;;;52.25;6.75;;;;;;;;;;5032289;28;20532;-64
2022/02/21 13:05:14;;;;;;;24.85;4.53;;;;;;;;;;5042412;28;20168;-64
2022/02/21 13:07:41;;;;;;;25.88;5.20;;;;;;;;;;5043448;28;20091;-64
2022/02/21 13:10:09;;;;;;;23.40;4.20;;;;;;;;;;5031997;28;20065;-63
2022/02/21 13:12:35;;;;;;;16.73;3.20;;;;;;;;;;5037633;28;20051;-71
2022/02/21 13:15:02;;;;;;;21.55;3.45;;;;;;;;;;5042705;28;20060;-65
2022/02/21 13:17:30;;;;;;;17.60;3.58;;;;;;;;;;5040064;28;20033;-65
2022/02/21 13:19:56;;;;;;;19.88;2.90;;;;;;;;;;5024828;28;20080;-62
2022/02/21 13:22:27;;;;;;;19.73;2.88;;;;;;;;;;5036331;28;20056;-63
2022/02/21 13:24:57;;;;;;;24.23;2.53;;;;;;;;;;5038056;28;20082;-64
2022/02/21 13:27:24;;;;;;;14.70;2.85;;;;;;;;;;5043731;28;20366;-63
2022/02/21 13:29:51;;;;;;;16.23;2.80;;;;;;;;;;5039788;28;20179;-63
2022/02/21 13:32:19;;;;;;;24.08;3.40;;;;;;;;;;5039086;28;20554;-63
2022/02/21 13:34:47;;;;;;;12.18;2.13;;;;;;;;;;5038990;28;20077;-63
2022/02/21 13:37:13;;;;;;;10.13;1.83;;;;;;;;;;5040622;28;20406;-64
2022/02/21 13:39:41;;;;;;;11.02;2.50;;;;;;;;;;5045418;28;20041;-64
2022/02/21 13:42:15;;;;;;;13.68;3.17;;;;;;;;;;5042703;28;20049;-64
2022/02/21 13:44:42;;;;;;;16.70;2.85;;;;;;;;;;5033350;28;20472;-64
2022/02/21 13:47:08;;;;;;;12.25;2.80;;;;;;;;;;5037148;28;20053;-64
2022/02/21 13:49:36;;;;;;;15.40;3.55;;;;;;;;;;5040731;28;20153;-65
2022/02/21 13:52:06;;;;;;;10.60;1.50;;;;;;;;;;5037923;28;20077;-64
2022/02/21 13:54:32;;;;;;;12.02;1.90;;;;;;;;;;5037846;28;20111;-64
2022/02/21 13:57:09;;;;;;;11.77;1.95;;;;;;;;;;5039844;28;20124;-64
2022/02/21 13:59:40;;;;;;;9.00;2.00;;;;;;;;;;5034427;28;20042;-65
2022/02/21 14:02:07;;;;;;;12.63;2.25;;;;;;;;;;5070698;28;20045;-65
2022/02/21 14:04:34;;;;;;;13.25;2.15;;;;;;;;;;5043916;28;20133;-65
2022/02/21 14:07:06;;;;;;;17.58;2.78;;;;;;;;;;5040161;28;20037;-65
2022/02/21 14:09:32;;;;;;;10.73;2.05;;;;;;;;;;5039231;28;20091;-65
2022/02/21 14:12:09;;;;;;;13.57;2.35;;;;;;;;;;5037863;28;20034;-66
2022/02/21 14:14:36;;;;;;;14.25;2.30;;;;;;;;;;5038459;28;20046;-65
2022/02/21 14:17:02;;;;;;;11.73;1.80;;;;;;;;;;5032873;28;20559;-65
2022/02/21 14:19:28;;;;;;;10.48;2.05;;;;;;;;;;5042713;28;20478;-65
2022/02/21 14:21:56;;;;;;;14.70;2.30;;;;;;;;;;5056380;28;20044;-65
2022/02/21 14:24:22;;;;;;;14.30;3.70;;;;;;;;;;5044583;28;20041;-66
2022/02/21 14:26:49;;;;;;;13.43;1.85;;;;;;;;;;5033737;28;20048;-65
2022/02/21 14:29:16;;;;;;;18.08;2.25;;;;;;;;;;5045273;28;20177;-63
2022/02/21 14:31:42;;;;;;;16.17;2.88;;;;;;;;;;5037543;28;20559;-64